Time;durP1;ratioP1;P1;durP2;ratioP2;P2;SDS_P1;SDS_P2;PMS_P1;PMS_P2;Temp;Humidity;BMP_temperature;BMP_pressure;BME280_temperature;BME280_humidity;BME280_pressure;Samples;Min_cycle;Max_cycle;Signal;HPM_P1;HPM_P2
2022/02/02 00:03:23;;;;;;;;;;;;;;;;;;;;;
2022/02/02 00:09:02;;;;;;;;;16.67;9.67;;;;;;;;4900741;28;45595;-95
2022/02/02 00:17:03;;;;;;;;;12.00;8.33;;;;;;;;4920388;28;45351;-94
2022/02/02 00:23:07;;;;;;;;;8.00;8.00;;;;;;;;4878552;29;45454;-96
2022/02/02 00:25:49;;;;;;;;;9.67;9.67;;;;;;;;4862678;29;45835;-95
2022/02/02 00:28:24;;;;;;;;;10.00;9.00;;;;;;;;4859062;29;47879;-95
2022/02/02 00:31:03;;;;;;;;;9.67;9.33;;;;;;;;4859809;29;45654;-95
2022/02/02 00:34:02;;;;;;;;;11.33;8.33;;;;;;;;4843466;29;45505;-95
2022/02/02 00:42:47;;;;;;;;;;;;;;;;;;;;;
2022/02/02 00:48:17;;;;;;;;;11.00;10.33;;;;;;;;4805654;29;45299;-95
2022/02/02 00:54:21;;;;;;;;;;;;;;;;;;;;;
2022/02/02 01:00:14;;;;;;;;;9.00;9.00;;;;;;;;4879289;29;45570;-96
2022/02/02 01:02:58;;;;;;;;;10.67;9.00;;;;;;;;4879198;29;47036;-95
2022/02/02 01:05:33;;;;;;;;;10.67;10.67;;;;;;;;4875538;29;45481;-95
2022/02/02 01:11:19;;;;;;;;;7.00;5.00;;;;;;;;4880427;29;45472;-95
2022/02/02 01:29:58;;;;;;;;;12.33;11.00;;;;;;;;4934713;28;45475;-95
2022/02/02 01:32:49;;;;;;;;;10.67;9.67;;;;;;;;4920444;28;45395;-94
2022/02/02 01:35:17;;;;;;;;;9.00;7.00;;;;;;;;4921494;28;46906;-95
2022/02/02 01:40:52;;;;;;;;;;;;;;;;;;;;;
2022/02/02 01:43:34;;;;;;;;;;;;;;;;;;;;;
2022/02/02 01:46:21;;;;;;;;;9.00;8.00;;;;;;;;4916219;28;76809;-96
2022/02/02 02:00:31;;;;;;;;;9.00;9.00;;;;;;;;4840997;29;45448;-94
2022/02/02 02:02:56;;;;;;;;;9.00;9.00;;;;;;;;4826863;29;45388;-95
2022/02/02 02:05:45;;;;;;;;;12.33;8.67;;;;;;;;4827315;29;45423;-95
2022/02/02 02:08:40;;;;;;;;;10.33;9.67;;;;;;;;4843732;29;46092;-96
2022/02/02 02:11:24;;;;;;;;;;;;;;;;;;;;;
2022/02/02 02:17:15;;;;;;;;;15.00;11.00;;;;;;;;4858905;29;45225;-95
2022/02/02 02:19:48;;;;;;;;;13.33;12.33;;;;;;;;4881956;29;46395;-95
2022/02/02 02:22:17;;;;;;;;;11.67;7.33;;;;;;;;4900537;29;45498;-95
2022/02/02 02:24:45;;;;;;;;;9.67;9.67;;;;;;;;4898855;29;45519;-94
2022/02/02 02:27:18;;;;;;;;;11.33;10.00;;;;;;;;4907804;28;45253;-95
2022/02/02 02:35:31;;;;;;;;;12.67;11.00;;;;;;;;4960142;28;45354;-95
2022/02/02 02:58:56;;;;;;;;;;;;;;;;;;;;;
2022/02/02 03:57:54;;;;;;;;;13.33;9.33;;;;;;;;4934948;28;45474;-96
2022/02/02 04:06:21;;;;;;;;;;;;;;;;;;;;;
2022/02/02 05:48:35;;;;;;;;;10.67;10.00;;;;;;;;4805176;29;45407;-96
2022/02/02 05:54:22;;;;;;;;;11.33;11.33;;;;;;;;4860653;29;45460;-95
2022/02/02 06:03:24;;;;;;;;;15.33;15.33;;;;;;;;4820615;29;45667;-95
2022/02/02 07:25:32;;;;;;;;;3.67;3.00;;;;;;;;6406185;22;45543;-87
2022/02/02 07:30:46;;;;;;;;;10.00;5.33;;;;;;;;6405022;22;46328;-85
2022/02/02 07:33:17;;;;;;;;;4.33;3.67;;;;;;;;6376947;22;45691;-93
2022/02/02 07:36:09;;;;;;;;;2.67;2.67;;;;;;;;6378269;22;45331;-92
2022/02/02 07:38:43;;;;;;;;;4.33;4.33;;;;;;;;6405907;22;45326;-92
2022/02/02 07:41:13;;;;;;;;;5.67;3.67;;;;;;;;6377824;22;48022;-94
2022/02/02 07:43:42;;;;;;;;;4.00;4.00;;;;;;;;6375995;22;45668;-94
2022/02/02 07:46:09;;;;;;;;;5.00;4.00;;;;;;;;6407605;22;45282;-94
2022/02/02 07:48:35;;;;;;;;;3.33;3.33;;;;;;;;6370127;22;45634;-94
2022/02/02 07:51:01;;;;;;;;;6.67;4.67;;;;;;;;6399231;22;46799;-94
2022/02/02 07:53:35;;;;;;;;;7.67;4.33;;;;;;;;6400441;22;45573;-93
2022/02/02 07:56:03;;;;;;;;;4.00;3.00;;;;;;;;6371904;22;45231;-92
2022/02/02 07:58:28;;;;;;;;;4.00;4.00;;;;;;;;6382976;22;45392;-94
2022/02/02 08:00:55;;;;;;;;;8.00;5.00;;;;;;;;6389863;22;46988;-93
2022/02/02 08:03:20;;;;;;;;;7.33;5.33;;;;;;;;6422884;22;45303;-95
2022/02/02 08:05:48;;;;;;;;;5.00;4.00;;;;;;;;6394989;22;44663;-94
2022/02/02 08:08:28;;;;;;;;;6.33;4.67;;;;;;;;6374274;22;45268;-92
2022/02/02 08:10:55;;;;;;;;;3.67;2.33;;;;;;;;6401044;22;46656;-94
2022/02/02 08:13:26;;;;;;;;;5.00;3.00;;;;;;;;6399800;22;45246;-94
2022/02/02 08:16:01;;;;;;;;;4.00;3.00;;;;;;;;6371345;22;45386;-93
2022/02/02 08:18:26;;;;;;;;;5.67;4.00;;;;;;;;6370772;22;45256;-95
2022/02/02 08:20:52;;;;;;;;;5.00;3.33;;;;;;;;6399457;22;46205;-94
2022/02/02 08:23:17;;;;;;;;;3.00;3.00;;;;;;;;6370854;22;45224;-94
2022/02/02 08:25:43;;;;;;;;;7.33;6.00;;;;;;;;6371605;22;45274;-94
2022/02/02 08:28:09;;;;;;;;;2.67;2.00;;;;;;;;6399858;22;45337;-94
2022/02/02 08:30:34;;;;;;;;;3.00;3.00;;;;;;;;6370966;22;47047;-94
2022/02/02 08:33:01;;;;;;;;;3.33;3.33;;;;;;;;6370811;22;45757;-94
2022/02/02 08:35:28;;;;;;;;;4.00;3.33;;;;;;;;6370840;22;45299;-95
2022/02/02 08:38:03;;;;;;;;;3.33;3.33;;;;;;;;6397343;22;45263;-94
2022/02/02 08:40:34;;;;;;;;;2.67;2.67;;;;;;;;6398684;22;45282;-94
2022/02/02 08:43:06;;;;;;;;;3.33;3.00;;;;;;;;6369769;22;45663;-93
2022/02/02 08:45:33;;;;;;;;;4.67;3.00;;;;;;;;6370611;22;45406;-92
2022/02/02 08:48:03;;;;;;;;;6.33;4.33;;;;;;;;6398233;22;45442;-92
2022/02/02 08:50:52;;;;;;;;;3.00;3.00;;;;;;;;6367957;22;47602;-93
2022/02/02 08:56:08;;;;;;;;;9.00;5.33;;;;;;;;6398912;22;45335;-93
2022/02/02 09:01:02;;;;;;;;;3.00;2.00;;;;;;;;6392018;22;45555;-91
2022/02/02 09:06:12;;;;;;;;;5.00;3.67;;;;;;;;6399884;22;45263;-91
2022/02/02 09:08:40;;;;;;;;;8.00;8.00;;;;;;;;6399356;22;45267;-93
2022/02/02 09:23:04;;;;;;;;;4.33;3.00;;;;;;;;6300112;22;45392;-93
2022/02/02 09:33:13;;;;;;;;;5.00;5.00;;;;;;;;6300175;22;45672;-93
2022/02/02 09:35:35;;;;;;;;;6.00;4.00;;;;;;;;6298662;22;45250;-92
2022/02/02 09:38:02;;;;;;;;;3.00;3.00;;;;;;;;6298558;22;45360;-93
2022/02/02 09:43:16;;;;;;;;;5.00;3.00;;;;;;;;6294499;22;45329;-93
2022/02/02 09:45:41;;;;;;;;;8.33;6.00;;;;;;;;6272748;22;45419;-92
2022/02/02 09:48:14;;;;;;;;;4.00;2.00;;;;;;;;6271156;22;45317;-93
2022/02/02 09:50:47;;;;;;;;;5.33;5.00;;;;;;;;6268406;22;45700;-94
2022/02/02 09:53:20;;;;;;;;;3.00;3.00;;;;;;;;6301422;22;47715;-92
2022/02/02 10:04:14;;;;;;;;;11.67;7.00;;;;;;;;6396274;22;45872;-92
2022/02/02 10:09:22;;;;;;;;;6.33;6.33;;;;;;;;6397225;22;45243;-92
2022/02/02 10:12:30;;;;;;;;;7.67;4.67;;;;;;;;6367125;22;45297;-92
2022/02/02 10:14:36;;;;;;;;;6.67;5.00;;;;;;;;6395416;22;46331;-93
2022/02/02 10:17:04;;;;;;;;;7.00;7.00;;;;;;;;6397724;22;45573;-93
2022/02/02 10:19:32;;;;;;;;;5.00;5.00;;;;;;;;6369121;22;45358;-92
2022/02/02 10:21:58;;;;;;;;;4.00;3.67;;;;;;;;6396202;22;45319;-93
2022/02/02 10:24:42;;;;;;;;;5.67;4.67;;;;;;;;6367351;22;47095;-93
2022/02/02 10:27:20;;;;;;;;;6.67;4.33;;;;;;;;6368121;22;46286;-92
2022/02/02 10:29:45;;;;;;;;;6.67;6.00;;;;;;;;6369036;22;45364;-93
2022/02/02 10:32:10;;;;;;;;;4.33;4.33;;;;;;;;6367674;22;45321;-92
2022/02/02 10:34:41;;;;;;;;;8.00;5.33;;;;;;;;6395250;22;45455;-92
2022/02/02 10:37:17;;;;;;;;;5.67;4.33;;;;;;;;6367523;22;45826;-92
2022/02/02 10:39:47;;;;;;;;;5.33;4.00;;;;;;;;6368613;22;45304;-91
2022/02/02 10:42:12;;;;;;;;;4.00;4.00;;;;;;;;6367421;22;45510;-90
2022/02/02 10:44:42;;;;;;;;;3.33;3.33;;;;;;;;6365567;22;48741;-91
2022/02/02 10:47:19;;;;;;;;;4.00;3.00;;;;;;;;6396304;22;45409;-91
2022/02/02 10:55:33;;;;;;;;;5.33;5.33;;;;;;;;6394482;22;45863;-91
2022/02/02 11:09:01;;;;;;;;;6.00;6.00;;;;;;;;6265497;22;45312;-91
2022/02/02 11:11:26;;;;;;;;;5.00;5.00;;;;;;;;6266608;22;45342;-92
2022/02/02 11:13:57;;;;;;;;;9.00;5.00;;;;;;;;6266117;22;45462;-91
2022/02/02 11:16:30;;;;;;;;;6.33;5.00;;;;;;;;6264565;22;48279;-91
2022/02/02 11:18:57;;;;;;;;;5.00;5.00;;;;;;;;6264538;22;45361;-93
2022/02/02 11:21:30;;;;;;;;;5.00;4.00;;;;;;;;6266266;22;45711;-90
2022/02/02 11:23:56;;;;;;;;;5.00;4.00;;;;;;;;6267255;22;45349;-91
2022/02/02 11:26:40;;;;;;;;;2.00;2.00;;;;;;;;6268244;22;45449;-93
2022/02/02 11:29:05;;;;;;;;;2.67;2.33;;;;;;;;6266414;22;45436;-92
2022/02/02 11:31:30;;;;;;;;;6.33;4.67;;;;;;;;6268411;22;45464;-95
2022/02/02 11:33:57;;;;;;;;;2.00;2.00;;;;;;;;6269834;22;45321;-93
2022/02/02 11:36:33;;;;;;;;;2.33;2.33;;;;;;;;6267767;22;46341;-91
2022/02/02 11:39:00;;;;;;;;;3.67;3.67;;;;;;;;6352181;22;45283;-90
2022/02/02 11:46:44;;;;;;;;;5.67;3.67;;;;;;;;6366886;22;45185;-92
2022/02/02 11:49:16;;;;;;;;;2.33;2.33;;;;;;;;6373990;22;45439;-92
2022/02/02 11:51:53;;;;;;;;;4.00;3.00;;;;;;;;6374654;22;45272;-91
2022/02/02 11:54:19;;;;;;;;;3.00;3.00;;;;;;;;6387258;22;44660;-91
2022/02/02 11:57:09;;;;;;;;;2.00;2.00;;;;;;;;6391161;22;46983;-92
2022/02/02 11:59:53;;;;;;;;;2.33;2.33;;;;;;;;6367832;22;45316;-94
2022/02/02 12:02:35;;;;;;;;;4.00;2.00;;;;;;;;6365922;22;45336;-91
2022/02/02 12:05:47;;;;;;;;;1.00;1.00;;;;;;;;6367311;22;45343;-90
2022/02/02 12:08:05;;;;;;;;;3.33;2.00;;;;;;;;6362055;22;46217;-91
2022/02/02 12:10:55;;;;;;;;;3.00;3.00;;;;;;;;6366748;22;45480;-94
2022/02/02 12:49:06;;;;;;;;;4.00;4.00;;;;;;;;6268369;22;45714;-94
2022/02/02 12:56:52;;;;;;;;;5.33;3.67;;;;;;;;6270680;22;45300;-94
2022/02/02 12:59:56;;;;;;;;;7.67;5.00;;;;;;;;6269839;22;45311;-94
2022/02/02 13:02:10;;;;;;;;;5.33;5.00;;;;;;;;6263405;22;46709;-94
2022/02/02 13:04:36;;;;;;;;;5.00;5.00;;;;;;;;6264445;22;45889;-94
2022/02/02 13:07:08;;;;;;;;;4.00;4.00;;;;;;;;6268198;22;45208;-94
2022/02/02 13:09:33;;;;;;;;;10.33;8.67;;;;;;;;6270395;22;45828;-94
2022/02/02 13:12:15;;;;;;;;;12.67;8.00;;;;;;;;6243831;22;47968;-94
2022/02/02 13:14:56;;;;;;;;;10.67;7.33;;;;;;;;6243110;22;45380;-95
2022/02/02 13:17:22;;;;;;;;;12.33;5.67;;;;;;;;6268328;22;45285;-94
2022/02/02 13:19:56;;;;;;;;;5.00;5.00;;;;;;;;6245224;22;45235;-94
2022/02/02 13:22:21;;;;;;;;;6.33;6.33;;;;;;;;6370552;22;48339;-94
2022/02/02 13:24:48;;;;;;;;;4.33;3.67;;;;;;;;6369405;22;45812;-94
2022/02/02 13:27:17;;;;;;;;;6.67;6.00;;;;;;;;6369690;22;45510;-94
2022/02/02 13:29:50;;;;;;;;;5.00;5.00;;;;;;;;6369229;22;45269;-94
2022/02/02 14:06:45;;;;;;;;;2.00;2.00;;;;;;;;6397313;22;45233;-94
2022/02/02 14:33:22;;;;;;;;;1.00;1.00;;;;;;;;6397222;22;45471;-92
2022/02/02 14:35:48;;;;;;;;;1.00;1.00;;;;;;;;6368385;22;47329;-94
2022/02/02 14:38:16;;;;;;;;;1.00;1.00;;;;;;;;6399185;22;45354;-94
2022/02/02 14:40:59;;;;;;;;;3.67;2.33;;;;;;;;6397224;22;45277;-94
2022/02/02 14:43:37;;;;;;;;;1.00;1.00;;;;;;;;6367561;22;45445;-94
2022/02/02 14:46:05;;;;;;;;;3.00;1.00;;;;;;;;6369327;22;47857;-94
2022/02/02 14:48:39;;;;;;;;;1.00;1.00;;;;;;;;6369548;22;46057;-95
2022/02/02 15:33:06;;;;;;;;;1.00;1.00;;;;;;;;6399278;22;45349;-94
2022/02/02 15:35:33;;;;;;;;;1.00;1.00;;;;;;;;6370614;22;45534;-95
2022/02/02 15:38:05;;;;;;;;;1.00;1.00;;;;;;;;6369899;22;46486;-94
2022/02/02 15:40:40;;;;;;;;;0.00;0.00;;;;;;;;6389704;22;45273;-93
2022/02/02 16:04:33;;;;;;;;;2.67;2.00;;;;;;;;6398396;22;45297;-94
2022/02/02 16:07:03;;;;;;;;;3.67;2.00;;;;;;;;6370233;22;45542;-93
2022/02/02 16:09:36;;;;;;;;;2.00;2.00;;;;;;;;6369537;22;47246;-94
2022/02/02 16:12:13;;;;;;;;;2.00;2.00;;;;;;;;6369426;22;45374;-96
2022/02/02 16:14:45;;;;;;;;;1.33;1.33;;;;;;;;6371131;22;45229;-93
2022/02/02 16:17:31;;;;;;;;;1.33;1.33;;;;;;;;6398692;22;45325;-96
2022/02/02 16:36:38;;;;;;;;;3.33;3.33;;;;;;;;6299533;22;45412;-94
2022/02/02 16:39:11;;;;;;;;;3.00;3.00;;;;;;;;6301286;22;45330;-95
2022/02/02 16:44:20;;;;;;;;;4.00;4.00;;;;;;;;6299569;22;45532;-95
2022/02/02 16:46:46;;;;;;;;;4.33;3.00;;;;;;;;6273273;22;45599;-93
2022/02/02 16:49:11;;;;;;;;;5.33;5.33;;;;;;;;6301478;22;45550;-93
2022/02/02 16:51:37;;;;;;;;;4.67;4.00;;;;;;;;6275676;22;46060;-93
2022/02/02 16:54:05;;;;;;;;;5.00;3.67;;;;;;;;6301923;22;45455;-93
2022/02/02 17:28:05;;;;;;;;;4.00;3.00;;;;;;;;6398163;22;45275;-94
2022/02/02 17:31:58;;;;;;;;;1.67;1.67;;;;;;;;6399187;22;45359;-92
2022/02/02 17:35:20;;;;;;;;;3.00;3.00;;;;;;;;6370651;22;47406;-92
2022/02/02 17:40:05;;;;;;;;;2.33;2.00;;;;;;;;6398721;22;45270;-92
2022/02/02 17:43:03;;;;;;;;;3.00;3.00;;;;;;;;6370576;22;45351;-94
2022/02/02 18:20:03;;;;;;;;;3.00;3.00;;;;;;;;6398838;22;45346;-94
2022/02/02 18:22:36;;;;;;;;;3.67;3.67;;;;;;;;6369615;22;45312;-94
2022/02/02 18:25:30;;;;;;;;;5.67;4.00;;;;;;;;6366175;22;45552;-93
2022/02/02 18:28:19;;;;;;;;;5.00;3.33;;;;;;;;6364248;22;45463;-93
2022/02/02 18:33:33;;;;;;;;;3.00;3.00;;;;;;;;6364832;22;45268;-94
2022/02/02 18:36:16;;;;;;;;;2.00;2.00;;;;;;;;6364241;22;45243;-93
2022/02/02 18:54:16;;;;;;;;;2.67;2.67;;;;;;;;6365623;22;45234;-93
2022/02/02 19:02:14;;;;;;;;;5.00;4.00;;;;;;;;6367120;22;45326;-93
2022/02/02 19:05:18;;;;;;;;;3.67;3.67;;;;;;;;6365263;22;45497;-93
2022/02/02 19:31:43;;;;;;;;;9.00;7.33;;;;;;;;6398344;22;46124;-89
2022/02/02 19:40:03;;;;;;;;;9.67;9.00;;;;;;;;6410337;22;45344;-90
2022/02/02 20:07:01;;;;;;;;;5.33;5.33;;;;;;;;6175062;23;45629;-93
2022/02/02 20:09:53;;;;;;;;;8.00;8.00;;;;;;;;6152463;23;45368;-93
2022/02/02 20:12:26;;;;;;;;;6.33;6.33;;;;;;;;6151517;23;45343;-96
